Terminal Aerodrome Forecast
Issued by NWS Rapid City, SD

Home | Current Version | Previous Version | Graphics & Text | Print | Product List | Glossary On
Versions: 1 2 3 4 5 6 7 8 9 10 11 12 13 14 15 16 17 18 19
000
FTUS43 KUNR 101734
TAFRAP
TAF
KRAP 101734Z 1018/1118 32016G26KT P6SM FEW250
     FM110100 31012G22KT P6SM SCT250
     FM110500 32017G27KT P6SM SCT250 WS015/32050KT
     FM110900 33035G55KT P6SM SKC=

USA.gov is the U.S. government's official web portal to all federal, state and local government web resources and services.